createdAt,value
2023-03-11T00:00:41.691Z,97.01
2023-03-11T00:03:26.948Z,96.95
2023-03-11T00:05:55.351Z,96.57
2023-03-11T00:08:24.285Z,96.48
2023-03-11T00:10:56.129Z,96.34
2023-03-11T00:13:22.880Z,96.07
2023-03-11T00:15:55.059Z,95.96
2023-03-11T00:18:26.218Z,95.85
2023-03-11T00:20:54.557Z,95.58
2023-03-11T00:23:21.369Z,95.42
2023-03-11T00:25:48.140Z,95.28
2023-03-11T00:28:15.995Z,94.98
2023-03-11T00:30:45.516Z,94.95
2023-03-11T00:33:14.596Z,94.86
2023-03-11T00:35:42.361Z,94.83
2023-03-11T00:38:14.445Z,95.02
2023-03-11T00:40:42.076Z,95.31
2023-03-11T00:43:09.193Z,95.80
2023-03-11T00:45:36.275Z,96.59
2023-03-11T00:48:04.239Z,96.74
2023-03-11T00:50:34.195Z,97.07
2023-03-11T00:53:01.945Z,97.62
2023-03-11T00:55:32.202Z,98.29
2023-03-11T00:58:03.665Z,98.62
2023-03-11T01:00:39.070Z,99.52
2023-03-11T01:03:06.129Z,100.00
2023-03-11T01:05:35.362Z,100.00
2023-03-11T01:08:03.913Z,100.00
2023-03-11T01:10:32.591Z,100.00
2023-03-11T01:12:59.417Z,100.00
2023-03-11T01:15:34.252Z,100.00
2023-03-11T01:18:02.105Z,100.00
2023-03-11T01:20:29.062Z,100.00
2023-03-11T01:22:56.400Z,100.00
2023-03-11T01:25:23.812Z,100.00
2023-03-11T01:27:50.760Z,100.00
2023-03-11T01:30:22.397Z,100.00
2023-03-11T01:32:50.517Z,100.00
2023-03-11T01:35:20.163Z,100.00
2023-03-11T01:37:47.265Z,100.00
2023-03-11T01:40:18.586Z,100.00
2023-03-11T01:42:45.292Z,100.00
2023-03-11T01:45:40.880Z,100.00
2023-03-11T01:48:10.334Z,100.00
2023-03-11T01:50:44.539Z,100.00
2023-03-11T01:53:13.083Z,100.00
2023-03-11T01:55:40.799Z,100.00
2023-03-11T01:58:15.318Z,100.00
2023-03-11T02:00:45.425Z,100.00
2023-03-11T02:03:23.703Z,100.00
2023-03-11T02:05:53.305Z,100.00
2023-03-11T02:08:20.073Z,100.00
2023-03-11T02:10:50.992Z,100.00
2023-03-11T02:13:19.102Z,100.00
2023-03-11T02:15:46.632Z,100.00
2023-03-11T02:18:14.476Z,100.00
2023-03-11T02:20:53.283Z,100.00
2023-03-11T02:23:25.179Z,100.00
2023-03-11T02:26:13.353Z,100.00
2023-03-11T02:28:48.064Z,100.00
2023-03-11T02:31:15.671Z,100.00
2023-03-11T02:33:49.239Z,100.00
2023-03-11T02:36:38.373Z,100.00
2023-03-11T02:39:08.730Z,100.00
2023-03-11T02:41:46.004Z,100.00
2023-03-11T02:44:16.752Z,100.00
2023-03-11T02:46:44.728Z,100.00
2023-03-11T02:49:16.097Z,100.00
2023-03-11T02:51:42.860Z,100.00
2023-03-11T02:54:09.824Z,100.00
2023-03-11T02:56:39.787Z,100.00
2023-03-11T02:59:06.649Z,100.00
2023-03-11T03:01:33.559Z,100.00
2023-03-11T03:04:00.622Z,100.00
2023-03-11T03:06:28.403Z,100.00
2023-03-11T03:08:55.914Z,100.00
2023-03-11T03:11:22.600Z,100.00
2023-03-11T03:13:58.477Z,100.00
2023-03-11T03:16:25.299Z,100.00
2023-03-11T03:18:52.063Z,100.00
2023-03-11T03:21:19.122Z,100.00
2023-03-11T03:23:46.258Z,100.00
2023-03-11T03:26:13.614Z,100.00
2023-03-11T03:28:41.819Z,100.00
2023-03-11T03:31:13.237Z,100.00
2023-03-11T03:33:40.912Z,100.00
2023-03-11T03:36:10.867Z,100.00
2023-03-11T03:38:43.208Z,100.00
2023-03-11T03:41:12.508Z,100.00
2023-03-11T03:43:39.665Z,100.00
2023-03-11T03:46:06.910Z,100.00
2023-03-11T03:48:40.183Z,100.00
2023-03-11T03:51:10.900Z,100.00
2023-03-11T03:53:41.389Z,100.00
2023-03-11T03:56:11.518Z,100.00
2023-03-11T03:58:38.694Z,100.00
2023-03-11T04:01:08.161Z,100.00
2023-03-11T04:03:37.527Z,100.00
2023-03-11T04:06:15.554Z,100.00
2023-03-11T04:08:42.689Z,100.00
2023-03-11T04:11:10.141Z,100.00
2023-03-11T04:13:37.105Z,100.00
2023-03-11T04:16:06.216Z,100.00
2023-03-11T04:18:34.773Z,100.00
2023-03-11T04:21:05.886Z,100.00
2023-03-11T04:23:33.180Z,100.00
2023-03-11T04:26:00.532Z,100.00
2023-03-11T04:28:27.497Z,100.00
2023-03-11T04:30:54.677Z,100.00
2023-03-11T04:33:21.733Z,100.00
2023-03-11T04:35:48.934Z,100.00
2023-03-11T04:38:17.210Z,100.00
2023-03-11T04:40:43.930Z,100.00
2023-03-11T04:43:11.201Z,100.00
2023-03-11T04:45:44.293Z,100.00
2023-03-11T04:48:11.372Z,100.00
2023-03-11T04:50:39.090Z,100.00
2023-03-11T04:53:05.869Z,100.00
2023-03-11T04:55:32.758Z,100.00
2023-03-11T04:57:59.539Z,100.00
2023-03-11T05:00:27.891Z,100.00
2023-03-11T05:03:03.682Z,100.00
2023-03-11T05:05:30.488Z,100.00
2023-03-11T05:07:57.680Z,100.00
2023-03-11T05:10:24.927Z,100.00
2023-03-11T05:12:53.932Z,100.00
2023-03-11T05:15:21.456Z,100.00
2023-03-11T05:17:48.118Z,100.00
2023-03-11T05:20:15.879Z,100.00
2023-03-11T05:22:43.302Z,100.00
2023-03-11T05:25:10.306Z,100.00
2023-03-11T05:27:37.684Z,100.00
2023-03-11T05:30:05.603Z,100.00
2023-03-11T05:32:33.552Z,100.00
2023-03-11T05:35:03.537Z,100.00
2023-03-11T05:37:32.274Z,100.00
2023-03-11T05:39:59.685Z,100.00
2023-03-11T05:42:26.485Z,100.00
2023-03-11T05:45:01.069Z,100.00
2023-03-11T05:47:33.748Z,100.00
2023-03-11T05:50:03.423Z,100.00
2023-03-11T05:52:34.634Z,100.00
2023-03-11T05:55:03.277Z,100.00
2023-03-11T05:57:30.822Z,100.00
2023-03-11T05:59:58.390Z,100.00
2023-03-11T06:02:25.681Z,100.00
2023-03-11T06:05:01.684Z,100.00
2023-03-11T06:07:34.897Z,100.00
2023-03-11T06:10:10.242Z,100.00
2023-03-11T06:12:39.182Z,100.00
2023-03-11T06:15:24.079Z,100.00
2023-03-11T06:18:04.232Z,100.00
2023-03-11T06:20:39.213Z,100.00
2023-03-11T06:23:06.477Z,100.00
2023-03-11T06:25:33.369Z,100.00
2023-03-11T06:28:08.120Z,100.00
2023-03-11T06:30:38.051Z,98.82
2023-03-11T06:33:08.475Z,97.19
2023-03-11T06:35:35.440Z,97.21
2023-03-11T06:38:02.328Z,97.37
2023-03-11T06:40:33.288Z,96.31
2023-03-11T06:43:00.467Z,94.79
2023-03-11T06:45:49.129Z,92.40
2023-03-11T06:48:16.758Z,90.95
2023-03-11T06:50:57.892Z,89.08
2023-03-11T06:53:29.371Z,88.63
2023-03-11T06:56:06.026Z,88.19
2023-03-11T06:58:43.238Z,86.33
2023-03-11T07:01:29.889Z,78.82
2023-03-11T07:04:10.853Z,73.08
2023-03-11T07:06:44.232Z,69.77
2023-03-11T07:09:15.418Z,70.09
2023-03-11T07:11:44.191Z,64.30
2023-03-11T07:14:15.630Z,62.68
2023-03-11T07:16:45.806Z,61.73
2023-03-11T07:19:35.509Z,61.16
2023-03-11T07:22:14.386Z,58.03
2023-03-11T07:24:48.468Z,60.52
2023-03-11T07:27:18.252Z,60.35
2023-03-11T07:29:51.448Z,60.72
2023-03-11T07:32:23.243Z,63.19
2023-03-11T07:35:03.850Z,62.05
2023-03-11T07:37:34.046Z,60.87
2023-03-11T07:40:00.855Z,61.83
2023-03-11T07:42:33.271Z,62.95
2023-03-11T07:45:01.599Z,63.08
2023-03-11T07:47:48.647Z,61.78
2023-03-11T07:50:16.711Z,63.78
2023-03-11T07:52:43.565Z,65.57
2023-03-11T07:55:15.824Z,67.56
2023-03-11T07:57:55.185Z,66.85
2023-03-11T08:00:25.411Z,65.68
2023-03-11T08:02:54.674Z,63.98
2023-03-11T08:05:21.804Z,64.02
2023-03-11T08:07:49.637Z,65.76
2023-03-11T08:10:16.624Z,62.71
2023-03-11T08:12:43.675Z,59.96
2023-03-11T08:15:13.009Z,61.21
2023-03-11T08:17:41.058Z,60.87
2023-03-11T08:24:07.020Z,60.13
2023-03-11T08:27:27.776Z,60.00
2023-03-11T08:30:00.150Z,61.22
2023-03-11T08:33:02.672Z,61.71
2023-03-11T08:35:36.246Z,62.42
2023-03-11T08:38:17.115Z,62.47
2023-03-11T08:41:21.053Z,60.64
2023-03-11T08:47:19.743Z,61.41
2023-03-11T08:50:44.171Z,61.24
2023-03-11T08:56:49.500Z,63.28
2023-03-11T08:59:36.524Z,64.76
2023-03-11T09:03:02.781Z,65.07
2023-03-11T09:05:49.872Z,60.98
2023-03-11T09:08:49.306Z,59.71
2023-03-11T09:11:27.563Z,59.84
2023-03-11T09:14:31.341Z,57.49
2023-03-11T09:17:01.962Z,57.74
2023-03-11T09:20:29.615Z,57.57
2023-03-11T09:23:14.139Z,57.02
2023-03-11T09:26:17.125Z,56.89
2023-03-11T09:29:02.190Z,57.43
2023-03-11T09:34:36.223Z,55.86
2023-03-11T09:38:19.139Z,55.95
2023-03-11T09:40:46.972Z,56.70
2023-03-11T09:43:43.976Z,57.32
2023-03-11T09:47:02.527Z,57.53
2023-03-11T09:50:08.243Z,58.51
2023-03-11T09:53:02.947Z,59.51
2023-03-11T09:56:04.537Z,60.50
2023-03-11T09:59:02.028Z,61.22
2023-03-11T10:02:34.474Z,62.25
2023-03-11T10:05:27.330Z,62.75
2023-03-11T10:08:23.491Z,63.21
2023-03-11T10:11:18.275Z,64.26
2023-03-11T10:14:21.799Z,63.77
2023-03-11T10:20:56.456Z,65.22
2023-03-11T10:24:15.676Z,63.76
2023-03-11T10:26:53.132Z,62.19
2023-03-11T10:30:45.158Z,60.34
2023-03-11T10:39:53.140Z,59.70
2023-03-11T10:42:49.522Z,60.18
2023-03-11T10:45:24.229Z,60.90
2023-03-11T10:48:19.567Z,61.12
2023-03-11T10:51:29.081Z,62.38
2023-03-11T10:54:00.297Z,61.72
2023-03-11T10:56:37.901Z,60.43
2023-03-11T10:59:37.397Z,59.85
2023-03-11T11:02:23.050Z,60.08
2023-03-11T11:05:16.916Z,60.32
2023-03-11T11:07:59.442Z,60.81
2023-03-11T11:13:57.135Z,59.41
2023-03-11T11:16:33.547Z,58.70
2023-03-11T11:19:14.153Z,60.18
2023-03-11T11:22:17.769Z,60.17
2023-03-11T11:24:56.759Z,59.79
2023-03-11T11:27:27.831Z,59.17
2023-03-11T11:30:10.985Z,59.11
2023-03-11T11:32:41.962Z,59.77
2023-03-11T11:35:19.353Z,60.94
2023-03-11T11:37:55.330Z,62.05
2023-03-11T11:40:32.952Z,63.01
2023-03-11T11:43:28.728Z,62.68
2023-03-11T11:46:01.661Z,62.16
2023-03-11T11:48:58.775Z,62.29
2023-03-11T11:51:41.336Z,62.72
2023-03-11T11:54:27.310Z,62.43
2023-03-11T11:56:58.248Z,61.67
2023-03-11T11:59:48.360Z,61.69
2023-03-11T12:03:00.024Z,60.78
2023-03-11T12:05:35.267Z,61.47
2023-03-11T12:08:11.937Z,61.85
2023-03-11T12:10:57.143Z,59.89
2023-03-11T12:14:12.519Z,60.01
2023-03-11T12:16:50.509Z,60.08
2023-03-11T12:20:00.639Z,59.21
2023-03-11T12:22:59.738Z,59.10
2023-03-11T12:25:48.205Z,57.89
2023-03-11T12:28:45.034Z,57.16
2023-03-11T12:31:15.574Z,57.13
2023-03-11T12:34:15.306Z,58.21
2023-03-11T12:36:58.765Z,58.18
2023-03-11T12:39:33.814Z,57.61
2023-03-11T12:42:22.781Z,57.38
2023-03-11T12:44:55.261Z,55.92
2023-03-11T12:47:35.263Z,54.26
2023-03-11T12:50:39.406Z,53.33
2023-03-11T12:53:16.835Z,53.93
2023-03-11T12:56:15.795Z,53.61
2023-03-11T12:59:39.193Z,53.86
2023-03-11T13:02:33.406Z,53.72
2023-03-11T13:05:50.457Z,54.09
2023-03-11T13:09:00.180Z,54.61
2023-03-11T13:15:20.197Z,55.89
2023-03-11T13:17:59.264Z,56.01
2023-03-11T13:20:40.775Z,57.11
2023-03-11T13:23:13.444Z,59.43
2023-03-11T13:25:49.765Z,58.68
2023-03-11T13:28:27.527Z,56.68
2023-03-11T13:31:20.245Z,55.60
2023-03-11T13:33:57.385Z,55.70
2023-03-11T13:36:42.925Z,55.40
2023-03-11T13:39:21.743Z,54.64
2023-03-11T13:41:48.886Z,54.66
2023-03-11T13:44:18.532Z,55.20
2023-03-11T13:46:50.758Z,55.26
2023-03-11T13:49:45.209Z,56.12
2023-03-11T13:52:16.730Z,56.05
2023-03-11T13:54:57.842Z,56.62
2023-03-11T13:57:29.701Z,57.05
2023-03-11T13:59:58.344Z,56.52
2023-03-11T14:02:28.431Z,56.54
2023-03-11T14:05:05.660Z,57.02
2023-03-11T14:07:34.831Z,57.50
2023-03-11T14:10:12.274Z,58.44
2023-03-11T14:12:39.085Z,57.85
2023-03-11T14:15:26.538Z,58.48
2023-03-11T14:18:13.733Z,59.88
2023-03-11T14:20:40.672Z,58.06
2023-03-11T14:23:21.164Z,57.27
2023-03-11T14:25:58.712Z,58.26
2023-03-11T14:28:29.828Z,58.95
2023-03-11T14:30:59.006Z,58.33
2023-03-11T14:33:26.650Z,59.29
2023-03-11T14:36:11.055Z,60.00
2023-03-11T14:38:43.792Z,59.93
2023-03-11T14:41:14.268Z,59.93
2023-03-11T14:43:47.322Z,60.66
2023-03-11T14:46:27.263Z,61.28
2023-03-11T14:49:00.824Z,61.57
2023-03-11T14:51:34.235Z,61.94
2023-03-11T14:54:23.824Z,62.24
2023-03-11T14:57:19.869Z,62.32
2023-03-11T15:00:02.147Z,61.26
2023-03-11T15:03:11.733Z,61.25
2023-03-11T15:06:02.876Z,62.34
2023-03-11T15:08:39.591Z,62.47
2023-03-11T15:11:20.091Z,62.89
2023-03-11T15:14:26.181Z,63.36
2023-03-11T15:17:33.048Z,63.39
2023-03-11T15:20:56.218Z,64.54
2023-03-11T15:23:33.157Z,65.38
2023-03-11T15:26:01.951Z,65.79
2023-03-11T15:28:34.290Z,65.95
2023-03-11T15:31:32.849Z,66.30
2023-03-11T15:34:21.396Z,66.61
2023-03-11T15:36:56.842Z,66.63
2023-03-11T15:39:52.184Z,65.87
2023-03-11T15:42:37.223Z,64.92
2023-03-11T15:45:33.764Z,64.99
2023-03-11T15:48:06.036Z,65.12
2023-03-11T15:50:46.934Z,64.21
2023-03-11T15:53:25.938Z,64.34
2023-03-11T15:56:28.584Z,64.52
2023-03-11T15:59:03.219Z,64.88
2023-03-11T16:01:37.591Z,64.43
2023-03-11T16:04:12.717Z,64.40
2023-03-11T16:07:07.427Z,64.33
2023-03-11T16:10:05.449Z,64.14
2023-03-11T16:12:52.561Z,63.80
2023-03-11T16:15:40.004Z,63.70
2023-03-11T16:18:10.770Z,63.44
2023-03-11T16:20:52.432Z,63.82
2023-03-11T16:23:25.754Z,63.97
2023-03-11T16:26:17.238Z,63.89
2023-03-11T16:28:45.768Z,64.27
2023-03-11T16:31:12.607Z,64.46
2023-03-11T16:33:47.810Z,64.76
2023-03-11T16:36:19.474Z,65.41
2023-03-11T16:38:50.514Z,65.47
2023-03-11T16:41:17.543Z,65.77
2023-03-11T16:43:50.766Z,65.94
2023-03-11T16:46:57.436Z,66.45
2023-03-11T16:49:30.504Z,66.71
2023-03-11T16:51:59.858Z,66.84
2023-03-11T16:54:27.592Z,67.59
2023-03-11T16:56:54.543Z,68.25
2023-03-11T16:59:24.044Z,68.92
2023-03-11T17:01:50.762Z,68.97
2023-03-11T17:04:17.641Z,69.37
2023-03-11T17:06:44.536Z,69.54
2023-03-11T17:09:20.001Z,69.21
2023-03-11T17:11:52.889Z,70.32
2023-03-11T17:14:23.281Z,70.45
2023-03-11T17:17:00.525Z,69.93
2023-03-11T17:19:30.948Z,70.04
2023-03-11T17:22:01.595Z,70.16
2023-03-11T17:24:29.461Z,70.65
2023-03-11T17:26:56.648Z,70.89
2023-03-11T17:29:23.892Z,71.26
2023-03-11T17:31:50.948Z,71.06
2023-03-11T17:34:20.501Z,71.00
2023-03-11T17:36:47.354Z,70.76
2023-03-11T17:39:14.457Z,68.84
2023-03-11T17:41:41.442Z,68.16
2023-03-11T17:44:12.292Z,68.46
2023-03-11T17:46:43.258Z,68.31
2023-03-11T17:49:24.628Z,68.20
2023-03-11T17:51:57.293Z,68.39
2023-03-11T17:54:24.604Z,68.29
2023-03-11T17:56:53.450Z,68.95
2023-03-11T17:59:22.753Z,68.96
2023-03-11T18:02:00.278Z,68.39
2023-03-11T18:04:27.577Z,68.76
2023-03-11T18:06:57.988Z,69.06
2023-03-11T18:09:32.966Z,68.71
2023-03-11T18:11:59.695Z,69.22
2023-03-11T18:14:26.396Z,69.70
2023-03-11T18:16:53.068Z,69.37
2023-03-11T18:19:19.841Z,69.75
2023-03-11T18:21:47.015Z,70.01
2023-03-11T18:24:14.428Z,70.01
2023-03-11T18:26:41.169Z,70.51
2023-03-11T18:29:07.809Z,70.24
2023-03-11T18:31:34.877Z,70.41
2023-03-11T18:34:12.971Z,70.55
2023-03-11T18:36:41.446Z,70.58
2023-03-11T18:39:12.082Z,70.42
2023-03-11T18:41:39.840Z,70.88
2023-03-11T18:44:06.822Z,70.60
2023-03-11T18:46:33.501Z,70.64
2023-03-11T18:49:02.114Z,71.13
2023-03-11T18:51:31.515Z,71.16
2023-03-11T18:53:59.373Z,70.86
2023-03-11T18:56:32.059Z,70.96
2023-03-11T18:59:00.125Z,70.74
2023-03-11T19:01:27.589Z,70.53
2023-03-11T19:03:57.073Z,70.30
2023-03-11T19:06:26.521Z,69.78
2023-03-11T19:08:53.992Z,69.13
2023-03-11T19:11:22.997Z,68.31
2023-03-11T19:13:49.959Z,67.97
2023-03-11T19:16:19.906Z,67.96
2023-03-11T19:18:54.486Z,68.33
2023-03-11T19:21:25.671Z,68.35
2023-03-11T19:23:59.637Z,68.62
2023-03-11T19:26:43.173Z,68.89
2023-03-11T19:29:12.000Z,69.53
2023-03-11T19:31:38.834Z,69.85
2023-03-11T19:34:14.669Z,70.45
2023-03-11T19:36:41.489Z,70.85
2023-03-11T19:39:08.231Z,71.25
2023-03-11T19:41:34.974Z,71.18
2023-03-11T19:44:03.541Z,71.49
2023-03-11T19:46:35.424Z,71.20
2023-03-11T19:49:03.895Z,71.08
2023-03-11T19:51:46.581Z,71.33
2023-03-11T19:54:16.469Z,70.99
2023-03-11T19:56:47.411Z,71.36
2023-03-11T19:59:14.264Z,71.28
2023-03-11T20:01:43.480Z,71.30
2023-03-11T20:04:14.585Z,71.02
2023-03-11T20:06:41.273Z,70.91
2023-03-11T20:09:08.223Z,70.43
2023-03-11T20:11:40.275Z,70.48
2023-03-11T20:14:10.700Z,70.94
2023-03-11T20:16:37.546Z,71.06
2023-03-11T20:19:04.237Z,71.09
2023-03-11T20:21:38.430Z,70.72
2023-03-11T20:24:05.914Z,70.77
2023-03-11T20:26:32.658Z,70.80
2023-03-11T20:28:59.636Z,69.97
2023-03-11T20:31:27.814Z,70.15
2023-03-11T20:33:55.902Z,69.32
2023-03-11T20:36:36.025Z,67.46
2023-03-11T20:39:09.931Z,67.06
2023-03-11T20:41:39.384Z,66.89
2023-03-11T20:44:11.778Z,66.40
2023-03-11T20:46:54.375Z,66.28
2023-03-11T20:49:21.751Z,66.14
2023-03-11T20:51:49.220Z,66.32
2023-03-11T20:54:17.590Z,66.51
2023-03-11T20:56:44.373Z,66.75
2023-03-11T20:59:13.437Z,67.10
2023-03-11T21:01:40.470Z,67.34
2023-03-11T21:04:07.271Z,67.50
2023-03-11T21:06:40.445Z,67.81
2023-03-11T21:09:14.051Z,67.70
2023-03-11T21:11:42.037Z,67.40
2023-03-11T21:14:17.760Z,67.82
2023-03-11T21:16:45.110Z,67.67
2023-03-11T21:19:14.917Z,67.49
2023-03-11T21:21:42.501Z,67.45
2023-03-11T21:24:17.909Z,67.77
2023-03-11T21:26:54.627Z,67.66
2023-03-11T21:29:24.979Z,67.98
2023-03-11T21:31:51.830Z,68.50
2023-03-11T21:34:18.495Z,68.70
2023-03-11T21:36:50.028Z,68.36
2023-03-11T21:39:17.861Z,68.68
2023-03-11T21:41:48.197Z,69.09
2023-03-11T21:44:26.851Z,69.07
2023-03-11T21:46:53.728Z,69.63
2023-03-11T21:49:26.074Z,69.51
2023-03-11T21:51:52.688Z,69.31
2023-03-11T21:54:19.451Z,69.79
2023-03-11T21:56:47.225Z,69.96
2023-03-11T21:59:13.886Z,70.12
2023-03-11T22:01:41.118Z,69.69
2023-03-11T22:04:08.549Z,69.96
2023-03-11T22:06:35.451Z,70.11
2023-03-11T22:09:03.278Z,70.03
2023-03-11T22:11:30.469Z,70.35
2023-03-11T22:13:59.895Z,70.21
2023-03-11T22:16:26.607Z,69.72
2023-03-11T22:18:53.576Z,69.27
2023-03-11T22:21:20.339Z,68.74
2023-03-11T22:23:47.792Z,68.67
2023-03-11T22:26:15.366Z,68.86
2023-03-11T22:28:42.558Z,68.88
2023-03-11T22:31:12.282Z,68.50
2023-03-11T22:33:38.931Z,68.44
2023-03-11T22:36:07.065Z,68.34
2023-03-11T22:38:33.935Z,68.23
2023-03-11T22:41:04.156Z,68.71
2023-03-11T22:43:30.766Z,68.78
2023-03-11T22:45:57.346Z,68.27
2023-03-11T22:48:23.993Z,68.34
2023-03-11T22:50:50.642Z,68.59
2023-03-11T22:53:20.774Z,68.55
2023-03-11T22:55:47.404Z,68.30
2023-03-11T22:58:14.184Z,68.70
2023-03-11T23:00:43.437Z,68.69
2023-03-11T23:03:11.235Z,68.79
2023-03-11T23:05:41.503Z,68.34
2023-03-11T23:08:14.465Z,67.73
2023-03-11T23:10:46.554Z,67.82
2023-03-11T23:13:13.944Z,66.87
2023-03-11T23:15:42.518Z,66.84
2023-03-11T23:18:10.276Z,66.78
2023-03-11T23:20:39.478Z,66.37
2023-03-11T23:23:06.350Z,66.58
2023-03-11T23:25:34.501Z,66.87
2023-03-11T23:28:03.146Z,67.10
2023-03-11T23:30:30.222Z,67.17
2023-03-11T23:32:57.235Z,67.34
2023-03-11T23:35:24.528Z,67.33
2023-03-11T23:37:51.425Z,67.28
2023-03-11T23:40:18.354Z,67.24
2023-03-11T23:42:44.910Z,67.25
2023-03-11T23:45:11.609Z,66.84
2023-03-11T23:47:38.180Z,66.78
2023-03-11T23:50:05.888Z,66.82
2023-03-11T23:52:32.792Z,67.11
2023-03-11T23:54:59.479Z,67.08
2023-03-11T23:57:26.096Z,67.16
2023-03-11T23:59:52.892Z,66.43
